createdAt,value
2023-03-04T00:00:46.518Z,95532.53
2023-03-04T00:03:32.472Z,95526.16
2023-03-04T00:06:18.517Z,95519.75
2023-03-04T00:09:04.817Z,95534.16
2023-03-04T00:11:51.836Z,95544.91
2023-03-04T00:14:37.555Z,95536.31
2023-03-04T00:17:24.157Z,95529.94
2023-03-04T00:20:10.833Z,95539.59
2023-03-04T00:22:56.904Z,95537.50
2023-03-04T00:25:43.643Z,95540.75
2023-03-04T00:28:29.790Z,95525.25
2023-03-04T00:31:15.594Z,95526.84
2023-03-04T00:34:01.278Z,95525.25
2023-03-04T00:36:47.018Z,95529.53
2023-03-04T00:39:32.814Z,95524.69
2023-03-04T00:42:19.079Z,95512.03
2023-03-04T00:45:06.279Z,95520.59
2023-03-04T00:47:52.209Z,95508.75
2023-03-04T00:50:38.472Z,95509.56
2023-03-04T00:53:24.137Z,95506.28
2023-03-04T00:56:11.877Z,95502.56
2023-03-04T00:58:57.583Z,95507.38
2023-03-04T01:01:44.553Z,95503.09
2023-03-04T01:04:30.289Z,95499.31
2023-03-04T01:07:16.322Z,95497.19
2023-03-04T01:10:05.972Z,95488.63
2023-03-04T01:12:52.740Z,95491.81
2023-03-04T01:15:43.023Z,95493.69
2023-03-04T01:18:28.978Z,95488.13
2023-03-04T01:21:21.557Z,95476.91
2023-03-04T01:24:07.537Z,95479.38
2023-03-04T01:26:54.534Z,95471.38
2023-03-04T01:29:41.065Z,95461.97
2023-03-04T01:32:41.378Z,95460.97
2023-03-04T01:35:27.496Z,95457.75
2023-03-04T01:38:13.438Z,95446.50
2023-03-04T01:40:59.405Z,95459.56
2023-03-04T01:43:45.377Z,95450.22
2023-03-04T01:46:31.787Z,95459.38
2023-03-04T01:49:17.883Z,95458.06
2023-03-04T01:52:04.044Z,95458.91
2023-03-04T01:54:50.936Z,95450.34
2023-03-04T01:57:36.844Z,95440.16
2023-03-04T02:00:31.942Z,95456.72
2023-03-04T02:03:22.328Z,95447.59
2023-03-04T02:06:08.367Z,95440.03
2023-03-04T02:08:54.289Z,95443.25
2023-03-04T02:11:41.242Z,95443.25
2023-03-04T02:14:27.111Z,95445.84
2023-03-04T02:17:13.556Z,95441.06
2023-03-04T02:20:16.102Z,95438.44
2023-03-04T02:23:12.925Z,95445.94
2023-03-04T02:26:26.758Z,95448.63
2023-03-04T02:29:15.381Z,95462.06
2023-03-04T02:32:01.625Z,95459.38
2023-03-04T02:34:49.444Z,95458.63
2023-03-04T02:37:35.454Z,95464.78
2023-03-04T02:40:26.646Z,95456.81
2023-03-04T02:43:12.947Z,95464.63
2023-03-04T02:45:58.708Z,95460.59
2023-03-04T02:48:45.764Z,95452.59
2023-03-04T02:51:31.670Z,95448.88
2023-03-04T02:54:21.388Z,95451.56
2023-03-04T02:57:10.323Z,95438.94
2023-03-04T02:59:58.789Z,95441.84
2023-03-04T03:02:46.965Z,95441.84
2023-03-04T03:05:36.572Z,95439.44
2023-03-04T03:08:23.098Z,95445.00
2023-03-04T03:11:09.546Z,95439.63
2023-03-04T03:13:56.643Z,95443.38
2023-03-04T03:16:43.848Z,95440.69
2023-03-04T03:19:30.303Z,95435.31
2023-03-04T03:22:16.207Z,95441.19
2023-03-04T03:25:01.916Z,95438.19
2023-03-04T03:27:47.991Z,95439.00
2023-03-04T03:30:35.603Z,95434.22
2023-03-04T03:33:24.419Z,95430.44
2023-03-04T03:36:11.492Z,95427.25
2023-03-04T03:38:57.418Z,95421.34
2023-03-04T03:41:43.372Z,95417.06
2023-03-04T03:44:29.422Z,95418.66
2023-03-04T03:47:19.742Z,95405.78
2023-03-04T03:50:08.990Z,95416.78
2023-03-04T03:52:54.862Z,95417.06
2023-03-04T03:55:40.959Z,95410.63
2023-03-04T03:58:27.105Z,95407.94
2023-03-04T04:01:12.862Z,95398.88
2023-03-04T04:03:58.685Z,95398.56
2023-03-04T04:06:44.777Z,95399.06
2023-03-04T04:09:30.749Z,95387.88
2023-03-04T04:12:17.057Z,95391.31
2023-03-04T04:15:03.087Z,95396.69
2023-03-04T04:17:52.253Z,95396.69
2023-03-04T04:20:38.987Z,95401.75
2023-03-04T04:23:24.801Z,95402.88
2023-03-04T04:26:10.441Z,95403.63
2023-03-04T04:28:56.150Z,95413.09
2023-03-04T04:31:42.090Z,95399.72
2023-03-04T04:34:28.114Z,95397.31
2023-03-04T04:37:13.762Z,95402.16
2023-03-04T04:39:59.479Z,95417.72
2023-03-04T04:42:47.788Z,95419.88
2023-03-04T04:45:34.341Z,95419.69
2023-03-04T04:48:20.367Z,95425.91
2023-03-04T04:51:06.335Z,95427.06
2023-03-04T04:53:52.091Z,95420.91
2023-03-04T04:56:37.772Z,95418.78
2023-03-04T04:59:23.485Z,95421.72
2023-03-04T05:02:09.195Z,95423.84
2023-03-04T05:04:55.151Z,95424.38
2023-03-04T05:07:41.849Z,95428.06
2023-03-04T05:10:27.919Z,95427.78
2023-03-04T05:13:13.670Z,95435.03
2023-03-04T05:15:59.872Z,95434.53
2023-03-04T05:18:46.150Z,95426.19
2023-03-04T05:21:31.876Z,95432.34
2023-03-04T05:24:17.546Z,95418.72
2023-03-04T05:27:03.398Z,95427.22
2023-03-04T05:29:49.251Z,95429.34
2023-03-04T05:32:35.006Z,95429.56
2023-03-04T05:35:20.615Z,95428.97
2023-03-04T05:38:08.687Z,95422.53
2023-03-04T05:40:59.477Z,95427.34
2023-03-04T05:43:45.725Z,95430.03
2023-03-04T05:46:40.086Z,95429.50
2023-03-04T05:49:26.930Z,95432.22
2023-03-04T05:52:12.820Z,95428.25
2023-03-04T05:54:58.757Z,95442.69
2023-03-04T05:57:44.750Z,95446.75
2023-03-04T06:00:33.448Z,95445.75
2023-03-04T06:03:21.655Z,95442.47
2023-03-04T06:06:07.762Z,95453.72
2023-03-04T06:08:55.771Z,95457.22
2023-03-04T06:11:41.702Z,95452.13
2023-03-04T06:14:27.800Z,95450.25
2023-03-04T06:17:13.859Z,95464.97
2023-03-04T06:20:06.464Z,95454.22
2023-03-04T06:22:52.625Z,95445.63
2023-03-04T06:25:39.341Z,95459.00
2023-03-04T06:28:25.105Z,95451.47
2023-03-04T06:31:12.209Z,95458.44
2023-03-04T06:33:58.003Z,95455.19
2023-03-04T06:36:43.823Z,95456.53
2023-03-04T06:39:29.768Z,95449.25
2023-03-04T06:42:15.592Z,95455.94
2023-03-04T06:45:02.013Z,95454.56
2023-03-04T06:47:48.092Z,95454.56
2023-03-04T06:50:33.966Z,95459.94
2023-03-04T06:53:19.784Z,95457.81
2023-03-04T06:56:06.191Z,95460.28
2023-03-04T06:58:52.444Z,95461.53
2023-03-04T07:01:38.588Z,95463.16
2023-03-04T07:04:24.856Z,95468.00
2023-03-04T07:07:11.776Z,95471.50
2023-03-04T07:09:57.543Z,95470.13
2023-03-04T07:12:43.468Z,95473.38
2023-03-04T07:15:29.904Z,95473.66
2023-03-04T07:18:15.976Z,95475.03
2023-03-04T07:21:01.924Z,95483.88
2023-03-04T07:23:47.781Z,95476.91
2023-03-04T07:26:33.556Z,95476.13
2023-03-04T07:29:19.340Z,95481.50
2023-03-04T07:32:09.502Z,95480.41
2023-03-04T07:34:55.461Z,95483.59
2023-03-04T07:37:41.202Z,95484.13
2023-03-04T07:40:26.999Z,95478.03
2023-03-04T07:43:13.462Z,95481.19
2023-03-04T07:46:01.787Z,95479.03
2023-03-04T07:48:47.688Z,95479.78
2023-03-04T07:51:35.167Z,95481.31
2023-03-04T07:54:21.727Z,95473.13
2023-03-04T07:57:07.421Z,95470.09
2023-03-04T07:59:53.181Z,95465.72
2023-03-04T08:02:39.762Z,95471.75
2023-03-04T08:05:25.800Z,95479.22
2023-03-04T08:08:11.862Z,95464.06
2023-03-04T08:10:58.161Z,95466.84
2023-03-04T08:13:44.918Z,95469.16
2023-03-04T08:16:31.019Z,95471.22
2023-03-04T08:19:16.977Z,95473.50
2023-03-04T08:22:03.415Z,95465.81
2023-03-04T08:24:49.469Z,95466.00
2023-03-04T08:27:37.280Z,95467.91
2023-03-04T08:30:23.306Z,95466.31
2023-03-04T08:33:10.378Z,95469.22
2023-03-04T08:35:56.906Z,95464.63
2023-03-04T08:38:43.198Z,95468.06
2023-03-04T08:41:29.514Z,95462.88
2023-03-04T08:44:15.866Z,95459.66
2023-03-04T08:47:01.707Z,95463.47
2023-03-04T08:49:47.422Z,95456.78
2023-03-04T08:52:33.495Z,95448.72
2023-03-04T08:55:20.357Z,95458.81
2023-03-04T08:58:07.558Z,95457.13
2023-03-04T09:00:53.173Z,95454.06
2023-03-04T09:03:39.902Z,95459.56
2023-03-04T09:06:26.068Z,95459.38
2023-03-04T09:09:12.184Z,95448.25
2023-03-04T09:11:57.897Z,95440.06
2023-03-04T09:14:43.602Z,95444.47
2023-03-04T09:17:29.500Z,95445.47
2023-03-04T09:20:15.825Z,95453.47
2023-03-04T09:23:02.975Z,95446.50
2023-03-04T09:25:49.691Z,95440.88
2023-03-04T09:28:35.690Z,95446.28
2023-03-04T09:31:22.063Z,95442.50
2023-03-04T09:34:08.205Z,95448.47
2023-03-04T09:36:54.239Z,95447.78
2023-03-04T09:39:40.228Z,95454.84
2023-03-04T09:42:31.584Z,95448.75
2023-03-04T09:45:23.662Z,95449.34
2023-03-04T09:48:13.340Z,95448.84
2023-03-04T09:51:23.610Z,95441.25
2023-03-04T09:54:19.024Z,95448.44
2023-03-04T09:57:40.122Z,95446.34
2023-03-04T10:00:58.423Z,95439.66
2023-03-04T10:03:52.322Z,95441.84
2023-03-04T10:06:40.564Z,95438.63
2023-03-04T10:09:56.193Z,95435.47
2023-03-04T10:12:44.337Z,95438.63
2023-03-04T10:15:44.195Z,95433.47
2023-03-04T10:19:00.914Z,95432.66
2023-03-04T10:21:48.898Z,95423.91
2023-03-04T10:24:35.540Z,95419.91
2023-03-04T10:27:21.486Z,95421.31
2023-03-04T10:30:32.989Z,95413.88
2023-03-04T10:33:24.388Z,95416.88
2023-03-04T10:36:25.492Z,95412.38
2023-03-04T10:39:19.006Z,95404.41
2023-03-04T10:42:24.178Z,95401.47
2023-03-04T10:45:22.303Z,95397.75
2023-03-04T10:48:18.885Z,95383.34
2023-03-04T10:51:16.890Z,95377.25
2023-03-04T10:54:20.470Z,95378.78
2023-03-04T10:57:16.763Z,95372.84
2023-03-04T11:00:23.183Z,95369.44
2023-03-04T11:03:37.253Z,95363.28
2023-03-04T11:06:23.651Z,95364.41
2023-03-04T11:09:22.470Z,95356.78
2023-03-04T11:12:14.053Z,95355.19
2023-03-04T11:15:02.181Z,95351.38
2023-03-04T11:17:52.752Z,95353.16
2023-03-04T11:20:48.519Z,95336.34
2023-03-04T11:23:44.575Z,95333.06
2023-03-04T11:26:48.736Z,95327.75
2023-03-04T11:29:55.736Z,95337.09
2023-03-04T11:32:46.286Z,95320.94
2023-03-04T11:35:43.191Z,95319.22
2023-03-04T11:38:33.598Z,95325.31
2023-03-04T11:41:25.644Z,95309.59
2023-03-04T11:44:14.417Z,95307.06
2023-03-04T11:47:08.959Z,95300.06
2023-03-04T11:50:07.044Z,95301.34
2023-03-04T11:53:02.631Z,95297.53
2023-03-04T11:56:37.315Z,95287.97
2023-03-04T11:59:36.967Z,95290.66
2023-03-04T12:02:32.511Z,95276.16
2023-03-04T12:05:33.865Z,95279.00
2023-03-04T12:08:22.859Z,95275.94
2023-03-04T12:11:43.689Z,95268.75
2023-03-04T12:14:51.233Z,95271.47
2023-03-04T12:17:59.788Z,95267.31
2023-03-04T12:20:55.949Z,95266.56
2023-03-04T12:23:50.796Z,95265.97
2023-03-04T12:26:55.590Z,95261.19
2023-03-04T12:29:57.124Z,95255.66
2023-03-04T12:32:51.974Z,95258.69
2023-03-04T12:35:42.175Z,95253.13
2023-03-04T12:38:50.932Z,95249.13
2023-03-04T12:41:58.381Z,95253.41
2023-03-04T12:45:20.786Z,95250.03
2023-03-04T12:48:14.598Z,95247.00
2023-03-04T12:51:35.551Z,95237.59
2023-03-04T12:54:26.189Z,95244.84
2023-03-04T12:57:21.641Z,95234.94
2023-03-04T13:00:26.469Z,95245.38
2023-03-04T13:03:35.596Z,95234.25
2023-03-04T13:06:57.899Z,95226.91
2023-03-04T13:10:01.924Z,95229.13
2023-03-04T13:12:58.218Z,95235.31
2023-03-04T13:15:44.112Z,95237.22
2023-03-04T13:18:31.476Z,95224.34
2023-03-04T13:21:24.004Z,95216.53
2023-03-04T13:24:44.964Z,95218.59
2023-03-04T13:27:51.402Z,95213.00
2023-03-04T13:30:38.284Z,95214.78
2023-03-04T13:33:24.075Z,95214.78
2023-03-04T13:36:30.062Z,95216.03
2023-03-04T13:39:15.985Z,95215.69
2023-03-04T13:42:02.262Z,95211.03
2023-03-04T13:44:47.944Z,95204.16
2023-03-04T13:47:43.681Z,95201.72
2023-03-04T13:50:36.491Z,95196.81
2023-03-04T13:53:34.471Z,95189.84
2023-03-04T13:56:32.013Z,95190.31
2023-03-04T13:59:29.882Z,95174.41
2023-03-04T14:02:19.051Z,95175.06
2023-03-04T14:05:05.253Z,95184.25
2023-03-04T14:07:51.331Z,95175.50
2023-03-04T14:10:38.189Z,95169.50
2023-03-04T14:13:24.755Z,95173.44
2023-03-04T14:16:10.804Z,95172.03
2023-03-04T14:19:02.011Z,95173.03
2023-03-04T14:21:48.244Z,95166.38
2023-03-04T14:24:34.115Z,95163.56
2023-03-04T14:27:19.673Z,95156.59
2023-03-04T14:30:31.911Z,95157.41
2023-03-04T14:33:31.751Z,95156.22
2023-03-04T14:36:20.470Z,95145.28
2023-03-04T14:39:07.374Z,95157.03
2023-03-04T14:41:56.233Z,95144.00
2023-03-04T14:44:48.475Z,95136.88
2023-03-04T14:47:39.035Z,95140.41
2023-03-04T14:50:25.103Z,95141.19
2023-03-04T14:53:15.715Z,95141.06
2023-03-04T14:56:06.669Z,95139.94
2023-03-04T14:58:54.985Z,95136.13
2023-03-04T15:01:41.924Z,95131.50
2023-03-04T15:04:28.044Z,95144.84
2023-03-04T15:07:19.832Z,95142.94
2023-03-04T15:10:09.403Z,95134.31
2023-03-04T15:12:57.517Z,95133.78
2023-03-04T15:15:45.380Z,95127.69
2023-03-04T15:18:33.302Z,95135.16
2023-03-04T15:21:30.077Z,95139.06
2023-03-04T15:24:16.213Z,95126.13
2023-03-04T15:27:07.734Z,95128.19
2023-03-04T15:29:56.348Z,95128.63
2023-03-04T15:32:42.478Z,95121.59
2023-03-04T15:35:30.539Z,95123.44
2023-03-04T15:38:16.805Z,95130.25
2023-03-04T15:41:03.241Z,95128.00
2023-03-04T15:43:50.266Z,95125.22
2023-03-04T15:46:37.661Z,95128.03
2023-03-04T15:49:23.820Z,95113.84
2023-03-04T15:52:19.728Z,95117.28
2023-03-04T15:55:07.637Z,95117.91
2023-03-04T15:58:00.424Z,95113.13
2023-03-04T16:00:46.178Z,95115.34
2023-03-04T16:03:32.082Z,95111.16
2023-03-04T16:06:23.975Z,95115.44
2023-03-04T16:09:14.709Z,95111.16
2023-03-04T16:12:02.138Z,95108.00
2023-03-04T16:14:49.353Z,95106.41
2023-03-04T16:17:35.363Z,95114.34
2023-03-04T16:20:24.635Z,95115.94
2023-03-04T16:23:13.721Z,95118.63
2023-03-04T16:26:00.993Z,95109.56
2023-03-04T16:28:46.849Z,95104.56
2023-03-04T16:31:32.643Z,95121.69
2023-03-04T16:34:18.616Z,95126.78
2023-03-04T16:37:13.941Z,95120.13
2023-03-04T16:40:00.205Z,95111.72
2023-03-04T16:42:46.056Z,95112.16
2023-03-04T16:45:32.636Z,95131.06
2023-03-04T16:48:20.333Z,95131.88
2023-03-04T16:51:15.291Z,95130.28
2023-03-04T16:54:01.424Z,95137.56
2023-03-04T16:56:48.454Z,95132.47
2023-03-04T16:59:34.427Z,95132.47
2023-03-04T17:02:22.380Z,95136.28
2023-03-04T17:05:10.233Z,95139.28
2023-03-04T17:07:56.330Z,95141.78
2023-03-04T17:10:42.356Z,95137.78
2023-03-04T17:13:29.235Z,95136.03
2023-03-04T17:16:18.336Z,95139.81
2023-03-04T17:19:04.480Z,95119.00
2023-03-04T17:21:57.498Z,95126.47
2023-03-04T17:24:43.163Z,95127.56
2023-03-04T17:27:30.395Z,95131.34
2023-03-04T17:30:16.583Z,95117.00
2023-03-04T17:33:02.683Z,95122.78
2023-03-04T17:35:48.796Z,95131.69
2023-03-04T17:38:34.924Z,95130.88
2023-03-04T17:41:21.695Z,95131.78
2023-03-04T17:44:10.630Z,95129.38
2023-03-04T17:46:57.624Z,95126.19
2023-03-04T17:49:43.933Z,95133.19
2023-03-04T17:52:29.666Z,95130.78
2023-03-04T17:55:15.618Z,95138.56
2023-03-04T17:58:01.569Z,95135.88
2023-03-04T18:00:47.980Z,95140.16
2023-03-04T18:03:34.054Z,95139.34
2023-03-04T18:06:22.912Z,95139.34
2023-03-04T18:09:09.530Z,95139.06
2023-03-04T18:11:55.577Z,95137.47
2023-03-04T18:14:41.680Z,95140.47
2023-03-04T18:17:28.456Z,95144.56
2023-03-04T18:20:15.090Z,95144.38
2023-03-04T18:23:01.064Z,95144.78
2023-03-04T18:25:47.371Z,95149.19
2023-03-04T18:28:33.740Z,95149.28
2023-03-04T18:31:26.176Z,95145.63
2023-03-04T18:34:12.826Z,95147.59
2023-03-04T18:36:58.783Z,95151.69
2023-03-04T18:39:44.708Z,95163.38
2023-03-04T18:42:31.675Z,95151.59
2023-03-04T18:45:17.723Z,95154.09
2023-03-04T18:48:04.827Z,95155.22
2023-03-04T18:50:52.605Z,95145.63
2023-03-04T18:53:40.459Z,95151.22
2023-03-04T18:56:34.655Z,95153.63
2023-03-04T18:59:22.467Z,95156.19
2023-03-04T19:02:32.536Z,95154.00
2023-03-04T19:05:26.700Z,95150.41
2023-03-04T19:08:13.280Z,95153.41
2023-03-04T19:11:00.296Z,95164.69
2023-03-04T19:13:47.679Z,95161.97
2023-03-04T19:16:33.720Z,95165.78
2023-03-04T19:19:19.819Z,95166.88
2023-03-04T19:22:06.946Z,95164.16
2023-03-04T19:24:55.020Z,95166.56
2023-03-04T19:27:41.004Z,95161.97
2023-03-04T19:30:26.957Z,95169.72
2023-03-04T19:33:12.776Z,95171.16
2023-03-04T19:36:01.795Z,95166.94
2023-03-04T19:38:47.632Z,95163.16
2023-03-04T19:41:34.674Z,95160.47
2023-03-04T19:44:21.382Z,95163.47
2023-03-04T19:47:11.072Z,95172.34
2023-03-04T19:49:57.481Z,95177.13
2023-03-04T19:52:43.691Z,95184.69
2023-03-04T19:55:29.597Z,95181.00
2023-03-04T19:58:16.607Z,95182.72
2023-03-04T20:01:02.481Z,95186.78
2023-03-04T20:03:48.243Z,95196.69
2023-03-04T20:06:37.083Z,95190.78
2023-03-04T20:09:27.806Z,95187.09
2023-03-04T20:12:14.022Z,95177.53
2023-03-04T20:15:00.530Z,95186.69
2023-03-04T20:17:46.754Z,95182.91
2023-03-04T20:20:32.780Z,95185.59
2023-03-04T20:23:20.570Z,95179.72
2023-03-04T20:26:06.618Z,95188.81
2023-03-04T20:28:52.633Z,95186.09
2023-03-04T20:31:39.562Z,95180.72
2023-03-04T20:34:27.229Z,95182.13
2023-03-04T20:37:14.024Z,95176.53
2023-03-04T20:40:00.080Z,95181.31
2023-03-04T20:42:47.257Z,95175.72
2023-03-04T20:45:33.986Z,95179.81
2023-03-04T20:48:21.019Z,95177.91
2023-03-04T20:51:06.687Z,95172.06
2023-03-04T20:53:55.119Z,95175.50
2023-03-04T20:56:41.439Z,95160.38
2023-03-04T20:59:28.124Z,95168.34
2023-03-04T21:02:15.999Z,95170.53
2023-03-04T21:05:01.962Z,95166.75
2023-03-04T21:07:47.995Z,95168.34
2023-03-04T21:10:35.592Z,95175.34
2023-03-04T21:13:23.505Z,95173.16
2023-03-04T21:16:15.300Z,95173.16
2023-03-04T21:19:01.351Z,95168.94
2023-03-04T21:21:48.587Z,95171.94
2023-03-04T21:24:36.265Z,95166.03
2023-03-04T21:27:22.234Z,95157.19
2023-03-04T21:30:14.627Z,95156.41
2023-03-04T21:33:03.766Z,95157.97
2023-03-04T21:35:51.325Z,95156.59
2023-03-04T21:38:38.680Z,95156.78
2023-03-04T21:41:25.784Z,95160.56
2023-03-04T21:44:22.609Z,95165.97
2023-03-04T21:47:16.976Z,95151.50
2023-03-04T21:50:02.720Z,95152.59
2023-03-04T21:52:49.087Z,95145.72
2023-03-04T21:55:35.252Z,95143.13
2023-03-04T21:58:21.173Z,95134.66
2023-03-04T22:01:19.249Z,95141.22
2023-03-04T22:04:05.697Z,95143.03
2023-03-04T22:06:53.654Z,95133.47
2023-03-04T22:09:39.880Z,95135.47
2023-03-04T22:12:26.428Z,95128.50
2023-03-04T22:15:12.696Z,95128.69
2023-03-04T22:17:58.705Z,95131.06
2023-03-04T22:20:48.191Z,95126.50
2023-03-04T22:23:39.745Z,95135.34
2023-03-04T22:26:31.919Z,95127.91
2023-03-04T22:29:18.310Z,95131.69
2023-03-04T22:32:04.582Z,95123.63
2023-03-04T22:34:50.819Z,95130.09
2023-03-04T22:37:37.378Z,95122.91
2023-03-04T22:40:23.798Z,95135.03
2023-03-04T22:43:10.584Z,95131.25
2023-03-04T22:46:00.522Z,95122.72
2023-03-04T22:48:47.930Z,95124.91
2023-03-04T22:51:33.925Z,95120.13
2023-03-04T22:54:20.717Z,95119.91
2023-03-04T22:57:07.490Z,95121.78
2023-03-04T22:59:53.938Z,95126.09
2023-03-04T23:02:39.749Z,95116.75
2023-03-04T23:05:25.809Z,95118.81
2023-03-04T23:08:11.524Z,95114.53
2023-03-04T23:10:57.603Z,95113.72
2023-03-04T23:13:44.100Z,95104.97
2023-03-04T23:16:33.467Z,95110.06
2023-03-04T23:19:19.416Z,95105.84
2023-03-04T23:22:05.262Z,95109.03
2023-03-04T23:24:52.549Z,95108.53
2023-03-04T23:27:39.653Z,95107.44
2023-03-04T23:30:25.865Z,95107.94
2023-03-04T23:33:11.911Z,95110.56
2023-03-04T23:35:57.721Z,95108.34
2023-03-04T23:38:45.475Z,95097.00
2023-03-04T23:41:32.978Z,95102.09
2023-03-04T23:44:19.009Z,95101.00
2023-03-04T23:47:04.926Z,95097.00
2023-03-04T23:49:50.866Z,95099.69
2023-03-04T23:52:36.729Z,95092.22
2023-03-04T23:55:22.754Z,95097.59
2023-03-04T23:58:08.430Z,95102.78
